Adolfo Suárez Madrid-Barajas International Airport (MAD/LEMD)




Flight Aircraft Arriving
CPX1136 B738
EBLG - Liège Airport
Belgium Liege, Belgium
Flight Aircraft Departing
CPX1135 B738
EBLG - Liège Airport
Belgium Liege, Belgium
Airport Information
Location: Madrid, ES
Coordinates: 40.4936 / -3.56676
Elevation:
Time Offset:
Local Time:
UTC Time:
Jet A Price: $/lbs

Current Weather
METAR: LEMD 051400Z 22010KT 200V260 9999 SCT040 07/M01 Q1004 NOSIG
TAF: TAF LEMD 051100Z 0512/0618 27010KT 9999 FEW045 TX09/0615Z TNM01/0606Z PROB30 TEMPO 0512/0518 FEW030TCU PROB40 TEMPO 0512/0519 27014G24KT PROB30 TEMPO 0612/0618 27012G22KT

Recent Arrivals
Date Flight Type Depart
11/01/2019 CPX735 B738 Liège Airport (EBLG)
Recent Departures
Date Flight Type Arrive
11/03/2019 CPX736 B738 Liège Airport (EBLG)